Time;durP1;ratioP1;P1;durP2;ratioP2;P2;SDS_P1;SDS_P2;PMS_P1;PMS_P2;Temp;Humidity;BMP_temperature;BMP_pressure;BME280_temperature;BME280_humidity;BME280_pressure;Samples;Min_cycle;Max_cycle;Signal;HPM_P1;HPM_P2
2021/08/15 00:00:22;;;;;;;22.67;7.33;;;;;;;14.15;100.00;101086.05;1701295;82;21015;-39
2021/08/15 00:02:48;;;;;;;13.28;6.05;;;;;;;14.12;100.00;101089.57;1718655;82;20992;-39
2021/08/15 00:05:15;;;;;;;15.88;5.85;;;;;;;14.10;100.00;101087.45;1702225;82;21039;-39
2021/08/15 00:07:41;;;;;;;15.55;6.67;;;;;;;14.09;100.00;101087.05;1734684;82;21338;-39
2021/08/15 00:10:08;;;;;;;25.27;6.85;;;;;;;14.07;100.00;101089.70;1718684;82;21002;-40
2021/08/15 00:12:36;;;;;;;17.65;6.67;;;;;;;14.06;100.00;101091.02;1719151;82;21023;-39
2021/08/15 00:15:05;;;;;;;16.67;6.90;;;;;;;14.04;100.00;101091.50;1721981;82;21505;-39
2021/08/15 00:17:32;;;;;;;17.45;7.08;;;;;;;14.00;99.77;101095.08;1719920;82;21755;-39
2021/08/15 00:20:00;;;;;;;11.03;6.08;;;;;;;13.94;99.46;101090.85;1747645;81;21461;-39
2021/08/15 00:22:26;;;;;;;11.60;6.37;;;;;;;13.90;99.29;101090.52;1720431;82;20984;-39
2021/08/15 00:24:53;;;;;;;19.17;6.70;;;;;;;13.85;99.20;101091.07;1735350;82;21509;-39
2021/08/15 00:27:19;;;;;;;12.90;5.58;;;;;;;13.81;99.15;101086.36;1696356;82;21670;-39
2021/08/15 00:29:46;;;;;;;12.82;5.65;;;;;;;13.76;99.12;101089.06;1730391;80;22216;-39
2021/08/15 00:32:13;;;;;;;10.30;6.47;;;;;;;13.73;99.01;101095.63;1732359;81;21031;-38
2021/08/15 00:34:39;;;;;;;16.35;5.87;;;;;;;13.68;98.95;101096.19;1721909;82;21019;-39
2021/08/15 00:37:07;;;;;;;9.20;6.53;;;;;;;13.64;98.90;101099.74;1719542;82;21043;-39
2021/08/15 00:39:34;;;;;;;12.95;6.65;;;;;;;13.60;98.88;101095.50;1728883;80;20983;-39
2021/08/15 00:42:00;;;;;;;14.15;6.33;;;;;;;13.57;98.83;101096.86;1722072;82;21793;-40
2021/08/15 00:44:27;;;;;;;17.00;7.00;;;;;;;13.53;98.75;101106.46;1729103;82;21649;-40
2021/08/15 00:46:55;;;;;;;43.52;8.35;;;;;;;13.49;98.86;101106.12;1729153;82;21056;-39
2021/08/15 00:49:21;;;;;;;39.13;7.85;;;;;;;13.46;98.96;101104.89;1695639;82;21007;-39
2021/08/15 00:51:48;;;;;;;41.02;7.55;;;;;;;13.44;99.11;101110.10;1727275;82;20991;-39
2021/08/15 00:54:15;;;;;;;40.78;8.15;;;;;;;13.42;99.26;101110.55;1729152;82;21883;-39
2021/08/15 00:56:48;;;;;;;85.25;11.97;;;;;;;13.41;99.27;101105.39;1727848;81;21434;-39
2021/08/15 00:59:18;;;;;;;57.33;8.60;;;;;;;13.39;99.74;101100.21;1739925;82;20975;-39
2021/08/15 01:01:45;;;;;;;35.43;8.10;;;;;;;13.41;100.00;101097.13;1744113;82;20980;-39
2021/08/15 01:04:12;;;;;;;24.52;7.55;;;;;;;13.41;100.00;101094.99;1746896;82;20981;-39
2021/08/15 01:06:38;;;;;;;19.12;6.10;;;;;;;13.40;100.00;101090.69;1735266;81;21808;-39
2021/08/15 01:09:05;;;;;;;35.40;6.55;;;;;;;13.40;100.00;101092.82;1741699;80;21498;-39
2021/08/15 01:11:34;;;;;;;24.98;6.60;;;;;;;13.40;100.00;101087.62;1719938;81;20920;-38
2021/08/15 01:14:05;;;;;;;20.08;5.78;;;;;;;13.39;100.00;101087.20;1722554;82;21058;-39
2021/08/15 01:16:36;;;;;;;16.12;5.58;;;;;;;13.40;100.00;101081.13;1725842;82;21509;-39
2021/08/15 01:19:04;;;;;;;14.33;6.33;;;;;;;13.43;100.00;101086.75;1718988;82;21740;-39
2021/08/15 01:21:32;;;;;;;18.92;5.95;;;;;;;13.43;100.00;101081.09;1724133;82;21663;-39
2021/08/15 01:23:59;;;;;;;14.78;5.97;;;;;;;13.43;100.00;101076.34;1726436;82;20968;-39
2021/08/15 01:26:25;;;;;;;13.25;5.60;;;;;;;13.44;100.00;101076.30;1720759;82;20995;-39
2021/08/15 01:28:52;;;;;;;12.35;5.67;;;;;;;13.43;100.00;101075.88;1719519;82;21003;-39
2021/08/15 01:31:21;;;;;;;12.95;5.47;;;;;;;13.44;100.00;101078.05;1723395;82;21133;-38
2021/08/15 01:33:48;;;;;;;10.85;5.40;;;;;;;13.42;100.00;101076.74;1710680;81;20996;-39
2021/08/15 01:36:16;;;;;;;13.03;5.53;;;;;;;13.42;100.00;101080.64;1705970;81;21020;-39
2021/08/15 01:38:46;;;;;;;8.73;5.10;;;;;;;13.40;100.00;101076.38;1704972;82;21502;-39
2021/08/15 01:41:12;;;;;;;12.70;5.60;;;;;;;13.37;100.00;101079.89;1669237;82;20984;-39
2021/08/15 01:43:53;;;;;;;11.25;5.58;;;;;;;13.36;100.00;101071.67;1716902;82;21136;-39
2021/08/15 01:46:21;;;;;;;8.05;5.00;;;;;;;13.32;100.00;101072.62;1719709;82;22264;-39
2021/08/15 01:48:48;;;;;;;9.05;5.55;;;;;;;13.34;100.00;101069.55;1733448;82;20929;-39
2021/08/15 01:51:15;;;;;;;13.25;5.65;;;;;;;13.40;100.00;101073.32;1720969;82;21541;-40
2021/08/15 01:53:42;;;;;;;14.15;5.28;;;;;;;13.43;100.00;101068.55;1725419;82;21467;-39
2021/08/15 01:56:09;;;;;;;25.25;5.05;;;;;;;13.45;100.00;101069.37;1707529;82;22601;-40
2021/08/15 01:58:35;;;;;;;6.37;5.05;;;;;;;13.46;100.00;101068.48;1729377;82;21561;-39
2021/08/15 02:01:02;;;;;;;10.55;5.30;;;;;;;13.44;100.00;101073.70;1706953;82;21099;-40
2021/08/15 02:03:28;;;;;;;15.78;5.10;;;;;;;13.42;100.00;101066.34;1694051;82;21092;-39
2021/08/15 02:05:55;;;;;;;79.20;8.70;;;;;;;13.41;100.00;101067.69;1661127;85;20954;-39
2021/08/15 02:08:21;;;;;;;55.63;8.83;;;;;;;13.39;100.00;101065.53;1707005;82;21773;-39
2021/08/15 02:10:48;;;;;;;22.22;6.05;;;;;;;13.40;100.00;101068.58;1713105;82;21679;-38
2021/08/15 02:13:15;;;;;;;9.55;5.65;;;;;;;13.39;100.00;101067.70;1714474;82;20979;-38
2021/08/15 02:15:43;;;;;;;14.20;5.67;;;;;;;13.37;100.00;101066.88;1687073;83;20954;-38
2021/08/15 02:18:11;;;;;;;9.95;5.70;;;;;;;13.34;100.00;101070.85;1697097;82;21023;-38
2021/08/15 02:20:40;;;;;;;14.23;5.45;;;;;;;13.30;100.00;101066.61;1717219;82;21020;-38
2021/08/15 02:23:07;;;;;;;14.93;5.55;;;;;;;13.27;100.00;101071.88;1710504;82;20949;-38
2021/08/15 02:25:33;;;;;;;18.85;5.55;;;;;;;13.25;100.00;101069.29;1729172;82;21569;-38
2021/08/15 02:28:00;;;;;;;12.03;5.58;;;;;;;13.27;100.00;101075.77;1710107;82;21088;-38
2021/08/15 02:30:27;;;;;;;7.33;5.40;;;;;;;13.27;100.00;101067.51;1734740;82;21712;-37
2021/08/15 02:32:53;;;;;;;5.37;4.80;;;;;;;13.27;100.00;101068.81;1720199;81;21228;-38
2021/08/15 02:35:20;;;;;;;9.38;5.92;;;;;;;13.28;100.00;101069.69;1718792;82;20941;-38
2021/08/15 02:37:50;;;;;;;12.90;4.80;;;;;;;13.26;100.00;101072.73;1710839;82;21007;-38
2021/08/15 02:40:20;;;;;;;13.80;5.72;;;;;;;13.25;100.00;101073.19;1712747;82;20952;-38
2021/08/15 02:42:48;;;;;;;83.17;7.60;;;;;;;13.27;100.00;101075.77;1720942;82;21667;-38
2021/08/15 02:45:17;;;;;;;70.70;9.33;;;;;;;13.26;100.00;101087.02;1708508;82;21134;-39
2021/08/15 02:47:44;;;;;;;57.80;9.35;;;;;;;13.22;100.00;101085.79;1685293;83;21064;-38
2021/08/15 02:50:12;;;;;;;61.02;9.20;;;;;;;13.20;100.00;101087.56;1706684;82;21103;-39
2021/08/15 02:52:38;;;;;;;22.05;5.62;;;;;;;13.18;100.00;101082.00;1707141;82;21217;-38
2021/08/15 02:55:08;;;;;;;9.08;4.78;;;;;;;13.17;100.00;101088.92;1712980;82;21028;-38
2021/08/15 02:57:36;;;;;;;10.10;4.83;;;;;;;13.16;100.00;101082.02;1703660;82;21069;-38
2021/08/15 03:00:05;;;;;;;9.65;5.03;;;;;;;13.18;100.00;101088.04;1705995;82;20968;-38
2021/08/15 03:02:34;;;;;;;9.23;4.60;;;;;;;13.21;100.00;101085.84;1720612;82;21566;-38
2021/08/15 03:05:00;;;;;;;12.28;6.03;;;;;;;13.22;100.00;101078.45;1696877;82;21007;-38
2021/08/15 03:07:27;;;;;;;17.95;6.55;;;;;;;13.23;100.00;101083.59;1717042;81;20949;-39
2021/08/15 03:09:54;;;;;;;10.00;5.25;;;;;;;13.25;100.00;101081.41;1713231;82;21141;-39
2021/08/15 03:12:21;;;;;;;13.60;5.00;;;;;;;13.29;100.00;101084.39;1722159;82;20936;-39
2021/08/15 03:14:49;;;;;;;21.27;6.00;;;;;;;13.31;100.00;101080.02;1718723;82;21513;-39
2021/08/15 03:17:17;;;;;;;24.63;5.62;;;;;;;13.32;100.00;101077.83;1706873;82;21545;-38
2021/08/15 03:19:45;;;;;;;53.15;8.00;;;;;;;13.33;100.00;101082.14;1713961;82;21483;-39
2021/08/15 03:22:12;;;;;;;46.10;6.50;;;;;;;13.37;100.00;101078.59;1711221;82;21256;-38
2021/08/15 03:24:39;;;;;;;43.92;6.97;;;;;;;13.40;100.00;101077.22;1696941;82;21016;-38
2021/08/15 03:27:07;;;;;;;23.25;5.30;;;;;;;13.44;100.00;101075.45;1686258;82;21018;-38
2021/08/15 03:29:35;;;;;;;9.73;5.58;;;;;;;13.48;100.00;101079.24;1713201;82;20992;-38
2021/08/15 03:32:01;;;;;;;8.85;5.62;;;;;;;13.52;100.00;101075.30;1707679;82;21029;-38
2021/08/15 03:34:28;;;;;;;19.87;5.67;;;;;;;13.60;100.00;101077.29;1717935;81;21508;-38
2021/08/15 03:36:55;;;;;;;9.93;5.22;;;;;;;13.67;100.00;101077.56;1728934;82;20972;-39
2021/08/15 03:39:21;;;;;;;19.20;5.58;;;;;;;13.76;100.00;101074.75;1734757;82;21588;-39
2021/08/15 03:41:49;;;;;;;107.32;7.95;;;;;;;13.86;100.00;101078.47;1729766;82;21013;-39
2021/08/15 03:44:16;;;;;;;18.35;5.80;;;;;;;13.95;100.00;101079.55;1719487;82;20909;-39
2021/08/15 03:46:42;;;;;;;6.87;5.08;;;;;;;14.06;100.00;101078.88;1719663;82;21206;-39
2021/08/15 03:49:09;;;;;;;9.23;5.05;;;;;;;14.21;100.00;101072.88;1737460;81;20944;-39
2021/08/15 03:51:35;;;;;;;7.28;5.35;;;;;;;14.35;100.00;101072.12;1719566;82;20979;-39
2021/08/15 03:54:02;;;;;;;10.60;5.72;;;;;;;14.49;100.00;101067.87;1740361;82;21290;-39
2021/08/15 03:56:30;;;;;;;10.30;5.40;;;;;;;14.66;100.00;101073.95;1724685;81;21007;-39
2021/08/15 03:58:57;;;;;;;13.05;5.65;;;;;;;14.87;100.00;101078.23;1725026;82;21128;-39
2021/08/15 04:01:23;;;;;;;14.50;5.30;;;;;;;15.10;100.00;101076.75;1726958;80;20984;-39
2021/08/15 04:03:50;;;;;;;13.38;6.10;;;;;;;15.35;98.89;101076.07;1728645;82;20987;-39
2021/08/15 04:06:21;;;;;;;6.50;5.17;;;;;;;15.64;97.90;101079.11;1724707;82;21019;-39
2021/08/15 04:08:49;;;;;;;9.05;4.40;;;;;;;15.94;96.55;101071.74;1676420;84;22157;-39
2021/08/15 04:11:18;;;;;;;15.50;5.03;;;;;;;16.23;92.38;101072.57;1672822;84;21081;-39
2021/08/15 04:13:46;;;;;;;8.60;5.08;;;;;;;16.53;90.03;101065.92;1726839;82;21497;-40
2021/08/15 04:16:13;;;;;;;12.58;5.05;;;;;;;16.83;87.07;101067.11;1726411;82;20924;-39
2021/08/15 04:18:40;;;;;;;7.85;4.87;;;;;;;17.09;84.66;101074.52;1722324;81;21019;-39
2021/08/15 04:21:07;;;;;;;6.65;4.42;;;;;;;17.38;83.39;101067.36;1743827;82;20995;-39
2021/08/15 04:23:34;;;;;;;6.75;4.35;;;;;;;17.62;81.64;101068.17;1735836;82;21126;-39
2021/08/15 04:26:00;;;;;;;6.75;4.60;;;;;;;17.89;78.18;101064.56;1730924;82;21666;-40
2021/08/15 04:28:28;;;;;;;7.75;4.80;;;;;;;18.13;77.14;101061.43;1726092;82;21536;-39
2021/08/15 04:30:55;;;;;;;6.87;4.50;;;;;;;18.30;73.85;101059.42;1726314;82;21454;-39
2021/08/15 04:33:24;;;;;;;5.95;4.62;;;;;;;18.40;73.90;101058.58;1734471;80;21601;-40
2021/08/15 04:35:52;;;;;;;5.03;4.42;;;;;;;18.61;74.16;101060.78;1731438;81;21180;-39
2021/08/15 04:38:22;;;;;;;9.75;5.17;;;;;;;18.85;72.52;101059.33;1708825;82;20899;-39
2021/08/15 04:40:50;;;;;;;7.80;4.20;;;;;;;18.99;72.48;101058.75;1707919;82;20984;-40
2021/08/15 04:43:19;;;;;;;7.60;4.25;;;;;;;19.16;71.37;101058.44;1710209;82;20917;-41
2021/08/15 04:45:48;;;;;;;7.65;4.33;;;;;;;19.24;70.34;101058.48;1708828;82;20992;-40
2021/08/15 04:48:15;;;;;;;12.28;6.30;;;;;;;19.30;71.04;101061.75;1706121;82;21033;-39
2021/08/15 04:50:42;;;;;;;6.92;5.10;;;;;;;19.50;69.07;101060.37;1721205;82;21000;-39
2021/08/15 04:53:09;;;;;;;7.40;5.00;;;;;;;19.72;67.12;101055.42;1730480;82;21278;-40
2021/08/15 04:55:36;;;;;;;11.85;5.05;;;;;;;19.95;65.83;101053.03;1718390;82;21617;-39
2021/08/15 04:58:04;;;;;;;9.70;5.05;;;;;;;20.07;64.49;101051.58;1716963;82;20988;-39
2021/08/15 05:00:30;;;;;;;8.80;5.20;;;;;;;20.01;64.13;101054.52;1707498;81;21774;-40
2021/08/15 05:02:57;;;;;;;9.30;4.42;;;;;;;19.89;63.88;101048.53;1710038;82;21754;-40
2021/08/15 05:05:23;;;;;;;12.13;4.85;;;;;;;19.79;64.87;101048.11;1729270;82;20930;-39
2021/08/15 05:07:49;;;;;;;12.63;4.70;;;;;;;19.82;65.50;101051.42;1734111;82;21846;-39
2021/08/15 05:10:16;;;;;;;7.28;4.05;;;;;;;19.93;63.58;101049.63;1696987;82;21582;-40
2021/08/15 05:12:42;;;;;;;9.25;5.30;;;;;;;19.98;65.03;101047.27;1710860;82;21147;-40
2021/08/15 05:15:10;;;;;;;7.37;4.45;;;;;;;20.09;65.04;101044.50;1714933;81;20960;-39
2021/08/15 05:17:36;;;;;;;8.73;4.40;;;;;;;20.25;64.47;101042.41;1716261;82;21517;-40
2021/08/15 05:20:04;;;;;;;10.53;4.30;;;;;;;20.42;64.14;101038.92;1706616;82;20972;-39
2021/08/15 05:22:31;;;;;;;7.87;4.15;;;;;;;20.51;63.74;101035.84;1710463;82;21099;-40
2021/08/15 05:24:57;;;;;;;5.15;4.60;;;;;;;20.55;61.41;101033.05;1708330;82;21120;-40
2021/08/15 05:27:24;;;;;;;6.08;4.28;;;;;;;20.48;60.74;101032.52;1715269;81;20968;-39
2021/08/15 05:29:50;;;;;;;15.23;4.95;;;;;;;20.48;61.61;101032.52;1718281;81;20952;-39
2021/08/15 05:32:17;;;;;;;8.83;3.92;;;;;;;20.58;61.53;101025.84;1711983;82;20901;-39
2021/08/15 05:34:43;;;;;;;6.17;4.67;;;;;;;20.65;60.41;101021.98;1729824;81;21027;-40
2021/08/15 05:37:09;;;;;;;6.00;4.50;;;;;;;20.62;60.84;101027.41;1723659;82;21116;-39
2021/08/15 05:39:36;;;;;;;15.08;3.92;;;;;;;20.50;61.13;101029.34;1734488;82;21015;-39
2021/08/15 05:42:04;;;;;;;8.85;4.15;;;;;;;20.36;62.00;101028.28;1728944;82;20995;-39
2021/08/15 05:44:31;;;;;;;9.90;4.40;;;;;;;20.27;62.91;101026.58;1701252;82;21023;-40
2021/08/15 05:46:59;;;;;;;8.50;4.22;;;;;;;20.18;63.43;101028.72;1740661;80;20955;-39
2021/08/15 05:49:25;;;;;;;7.90;4.20;;;;;;;20.13;63.87;101025.47;1728403;82;21132;-39
2021/08/15 05:51:52;;;;;;;7.92;5.00;;;;;;;20.08;63.37;101020.92;1743502;82;21015;-40
2021/08/15 05:54:19;;;;;;;9.13;4.70;;;;;;;20.05;63.42;101019.76;1680916;83;21614;-40
2021/08/15 05:56:47;;;;;;;9.85;3.72;;;;;;;20.05;63.79;101017.13;1722418;81;21580;-39
2021/08/15 05:59:15;;;;;;;10.75;4.87;;;;;;;20.12;64.52;101021.62;1725035;82;21895;-39
2021/08/15 06:01:42;;;;;;;9.98;4.20;;;;;;;20.18;64.27;101025.25;1723717;82;21871;-39
2021/08/15 06:04:09;;;;;;;14.80;4.65;;;;;;;20.20;64.48;101020.29;1722300;82;21317;-39
2021/08/15 06:06:35;;;;;;;10.38;4.17;;;;;;;20.23;64.37;101021.48;1721191;82;21061;-39
2021/08/15 06:09:03;;;;;;;7.40;4.20;;;;;;;20.29;64.36;101017.66;1700741;82;21078;-39
2021/08/15 06:11:29;;;;;;;6.22;4.15;;;;;;;20.38;64.02;101019.84;1742769;82;20880;-39
2021/08/15 06:13:57;;;;;;;5.60;4.22;;;;;;;20.52;64.60;101015.20;1737011;81;21060;-39
2021/08/15 06:16:25;;;;;;;7.47;3.50;;;;;;;20.70;65.06;101013.83;1725172;81;21015;-39
2021/08/15 06:18:52;;;;;;;7.85;4.22;;;;;;;20.88;64.23;101019.95;1727488;80;21031;-39
2021/08/15 06:21:18;;;;;;;5.33;4.42;;;;;;;21.05;63.52;101014.24;1731590;82;21181;-41
2021/08/15 06:23:47;;;;;;;9.48;3.90;;;;;;;21.20;63.20;101017.82;1697241;83;20944;-40
2021/08/15 06:26:14;;;;;;;8.73;4.00;;;;;;;21.34;62.57;101015.75;1720151;82;21011;-40
2021/08/15 06:28:42;;;;;;;5.40;3.92;;;;;;;21.50;63.43;101004.75;1692830;82;20975;-39
2021/08/15 06:31:08;;;;;;;11.55;4.40;;;;;;;21.67;62.54;101009.59;1736805;82;20912;-39
2021/08/15 06:33:35;;;;;;;20.92;4.30;;;;;;;21.83;63.14;101006.92;1727228;82;20964;-40
2021/08/15 06:36:01;;;;;;;7.58;4.15;;;;;;;21.98;62.39;101004.32;1714650;81;21024;-39
2021/08/15 06:38:27;;;;;;;5.42;4.12;;;;;;;22.10;60.64;101003.63;1622020;86;21010;-39
2021/08/15 06:40:56;;;;;;;6.58;3.98;;;;;;;22.22;61.64;101009.96;1719128;82;21000;-40
2021/08/15 06:43:24;;;;;;;9.23;4.67;;;;;;;22.33;61.10;101006.20;1707885;82;21023;-39
2021/08/15 06:45:54;;;;;;;14.95;4.87;;;;;;;22.46;60.04;101006.81;1705159;82;21044;-41
2021/08/15 06:48:26;;;;;;;15.72;4.30;;;;;;;22.57;61.17;101004.39;1705120;82;20981;-39
2021/08/15 06:50:54;;;;;;;19.27;4.10;;;;;;;22.71;60.85;101002.71;1733626;81;21140;-39
2021/08/15 06:53:23;;;;;;;15.70;4.90;;;;;;;22.89;60.82;100998.09;1726558;82;20929;-40
2021/08/15 06:55:49;;;;;;;15.23;4.58;;;;;;;23.03;58.86;100995.45;1708844;82;21016;-40
2021/08/15 06:58:17;;;;;;;8.18;4.20;;;;;;;23.19;58.12;100998.42;1706024;82;21502;-40
2021/08/15 07:00:44;;;;;;;9.98;4.60;;;;;;;23.31;57.87;100997.69;1706720;82;20944;-40
2021/08/15 07:03:11;;;;;;;8.80;5.33;;;;;;;23.47;58.77;100998.86;1706008;82;21144;-40
2021/08/15 07:05:38;;;;;;;8.45;4.75;;;;;;;23.64;58.07;100996.94;1710617;82;20968;-40
2021/08/15 07:08:05;;;;;;;15.20;4.60;;;;;;;23.79;58.14;100999.87;1724493;82;20979;-40
2021/08/15 07:10:32;;;;;;;11.10;4.75;;;;;;;23.94;58.47;100998.01;1725721;82;21032;-40
2021/08/15 07:13:01;;;;;;;8.53;4.20;;;;;;;24.09;56.07;100996.66;1708224;82;20972;-40
2021/08/15 07:15:28;;;;;;;11.38;4.35;;;;;;;24.24;55.85;100998.23;1701473;82;21161;-40
2021/08/15 07:17:56;;;;;;;7.83;4.80;;;;;;;24.43;54.81;101004.09;1700346;82;20937;-40
2021/08/15 07:20:23;;;;;;;12.20;4.80;;;;;;;24.62;54.14;100995.72;1707376;82;21023;-40
2021/08/15 07:22:49;;;;;;;10.20;5.17;;;;;;;24.83;52.12;100994.72;1721114;82;21529;-40
2021/08/15 07:25:16;;;;;;;12.35;8.43;;;;;;;24.98;49.54;100994.59;1721432;82;21027;-40
2021/08/15 07:27:44;;;;;;;7.92;5.03;;;;;;;25.22;48.17;100999.92;1721335;82;21147;-40
2021/08/15 07:30:12;;;;;;;7.17;4.50;;;;;;;25.50;48.47;101004.57;1697855;82;21534;-40
2021/08/15 07:32:58;;;;;;;6.50;4.70;;;;;;;25.70;46.75;100991.66;1715145;82;20987;-40
2021/08/15 07:35:26;;;;;;;11.78;4.17;;;;;;;25.94;46.50;100994.30;1708040;82;21489;-40
2021/08/15 07:37:53;;;;;;;4.72;3.60;;;;;;;26.21;43.26;100987.88;1732950;82;21463;-40
2021/08/15 07:40:20;;;;;;;10.32;4.12;;;;;;;26.29;43.50;100988.12;1718143;82;21296;-40
2021/08/15 07:42:50;;;;;;;3.37;3.08;;;;;;;26.47;42.88;100986.35;1709476;82;21055;-40
2021/08/15 07:45:19;;;;;;;5.50;2.85;;;;;;;26.52;42.45;100985.50;1720171;82;21008;-41
2021/08/15 07:47:45;;;;;;;5.15;3.20;;;;;;;26.65;43.33;100980.94;1728772;82;21010;-40
2021/08/15 07:50:13;;;;;;;2.87;2.58;;;;;;;26.80;39.65;100984.66;1705134;82;20936;-40
2021/08/15 07:52:39;;;;;;;3.22;2.60;;;;;;;26.90;40.35;100978.99;1711846;81;21105;-41
2021/08/15 07:55:07;;;;;;;6.75;2.72;;;;;;;27.10;40.52;100975.23;1734313;82;20945;-41
2021/08/15 07:57:34;;;;;;;5.37;2.95;;;;;;;27.22;39.34;100980.03;1695581;82;20988;-41
2021/08/15 08:00:00;;;;;;;7.20;2.70;;;;;;;27.33;40.24;100974.70;1705055;84;21411;-41
2021/08/15 08:02:27;;;;;;;13.00;3.30;;;;;;;27.50;39.09;100979.09;1689946;82;21576;-40
2021/08/15 08:04:53;;;;;;;8.35;3.42;;;;;;;27.57;39.49;100972.83;1658408;86;21104;-40
2021/08/15 08:07:21;;;;;;;6.67;4.33;;;;;;;27.67;37.60;100973.77;1706274;82;20995;-40
2021/08/15 08:09:48;;;;;;;6.80;3.00;;;;;;;27.85;38.74;100975.84;1637045;86;21003;-40
2021/08/15 08:12:16;;;;;;;7.78;3.20;;;;;;;28.09;38.39;100968.44;1721188;82;21039;-40
2021/08/15 08:14:44;;;;;;;7.78;3.90;;;;;;;28.19;36.93;100967.20;1718434;82;21019;-40
2021/08/15 08:17:12;;;;;;;4.40;2.70;;;;;;;28.30;37.87;100964.12;1716833;82;21157;-40
2021/08/15 08:19:39;;;;;;;10.03;5.22;;;;;;;28.20;34.85;100969.39;1613929;86;21047;-40
2021/08/15 08:22:06;;;;;;;5.67;3.60;;;;;;;28.02;34.85;100952.66;1670815;84;21500;-40
2021/08/15 08:24:33;;;;;;;10.58;4.60;;;;;;;28.14;36.17;100959.22;1715001;82;20952;-41
2021/08/15 08:26:59;;;;;;;7.42;4.92;;;;;;;28.32;34.41;100960.84;1719997;82;20925;-40
2021/08/15 08:29:26;;;;;;;6.15;3.27;;;;;;;28.13;35.67;100960.20;1696807;82;21039;-41
2021/08/15 08:31:53;;;;;;;5.87;2.52;;;;;;;28.16;34.52;100958.63;1696057;82;20988;-41
2021/08/15 08:34:19;;;;;;;6.08;3.27;;;;;;;28.20;36.04;100960.08;1720457;82;21051;-41
2021/08/15 08:36:45;;;;;;;12.25;4.87;;;;;;;28.29;36.04;100956.62;1717721;82;21012;-40
2021/08/15 08:39:12;;;;;;;21.30;8.48;;;;;;;28.36;37.59;100959.09;1716155;82;21016;-41
2021/08/15 08:41:39;;;;;;;9.50;3.45;;;;;;;28.55;36.71;100958.84;1718164;82;21067;-40
2021/08/15 08:44:07;;;;;;;8.48;3.12;;;;;;;28.83;34.02;100952.44;1693612;82;20945;-40
2021/08/15 08:46:34;;;;;;;4.72;3.80;;;;;;;29.10;34.80;100951.80;1720132;82;21526;-41
2021/08/15 08:49:01;;;;;;;9.53;5.08;;;;;;;29.35;34.20;100951.39;1717777;82;20996;-41
2021/08/15 08:51:27;;;;;;;8.03;2.77;;;;;;;29.39;32.17;100940.33;1699121;82;21028;-41
2021/08/15 08:53:54;;;;;;;8.50;6.10;;;;;;;29.21;33.42;100948.17;1721013;82;21180;-41
2021/08/15 08:56:24;;;;;;;8.75;3.70;;;;;;;29.31;32.89;100944.66;1717359;82;21016;-40
2021/08/15 08:58:50;;;;;;;12.53;7.35;;;;;;;29.25;32.44;100946.91;1721687;82;21019;-42
2021/08/15 09:01:17;;;;;;;9.43;3.72;;;;;;;29.36;33.54;100940.61;1696116;82;21043;-40
2021/08/15 09:03:45;;;;;;;11.45;4.62;;;;;;;29.56;32.28;100936.64;1719435;82;20969;-40
2021/08/15 09:06:21;;;;;;;7.10;2.52;;;;;;;29.74;31.84;100936.76;1730880;82;22487;-40
2021/08/15 09:08:48;;;;;;;6.72;2.92;;;;;;;29.93;31.25;100935.88;1718744;82;20944;-40
2021/08/15 09:11:24;;;;;;;4.70;2.60;;;;;;;30.06;31.88;100929.40;1705685;82;20993;-40
2021/08/15 09:14:05;;;;;;;5.97;2.72;;;;;;;30.17;31.64;100932.39;1710757;82;21044;-40
2021/08/15 09:16:58;;;;;;;4.17;3.55;;;;;;;30.22;31.71;100925.63;1682997;84;21723;-40
2021/08/15 09:19:44;;;;;;;4.97;2.52;;;;;;;30.29;30.95;100925.89;1637631;86;21070;-40
2021/08/15 09:22:15;;;;;;;;;;;;;;;30.31;31.19;100920.39;1678309;84;20951;-41
2021/08/15 09:25:11;;;;;;;9.30;4.30;;;;;;;30.17;31.12;100920.38;1688114;84;20509;-41
2021/08/15 09:27:49;;;;;;;15.25;5.87;;;;;;;30.14;30.41;100915.33;1730957;82;20980;-40
2021/08/15 09:30:26;;;;;;;11.25;6.55;;;;;;;30.00;31.35;100912.13;1704819;82;20972;-41
2021/08/15 09:33:04;;;;;;;6.58;5.87;;;;;;;30.23;31.17;100918.48;1713634;82;21312;-41
2021/08/15 09:35:36;;;;;;;5.87;2.55;;;;;;;30.21;31.72;100916.45;1720021;82;20937;-41
2021/08/15 09:38:18;;;;;;;2.92;2.00;;;;;;;30.17;28.66;100911.89;1729546;82;20987;-41
2021/08/15 09:40:50;;;;;;;7.03;2.72;;;;;;;30.10;29.45;100912.13;1729092;82;21016;-41
2021/08/15 09:43:30;;;;;;;4.03;3.12;;;;;;;30.01;31.25;100912.95;1733191;80;22242;-41
2021/08/15 09:46:00;;;;;;;3.33;2.60;;;;;;;30.22;31.32;100906.12;1733228;82;21156;-40
2021/08/15 09:51:21;;;;;;;2.17;2.08;;;;;;;30.59;29.82;100915.91;1788888;79;22621;-41
2021/08/15 09:53:58;;;;;;;4.10;2.30;;;;;;;30.45;30.26;100909.75;1748431;80;20967;-42
2021/08/15 09:56:37;;;;;;;2.45;2.25;;;;;;;30.38;30.00;100906.31;1751546;80;21019;-41
2021/08/15 09:59:15;;;;;;;2.47;2.27;;;;;;;30.37;30.21;100904.63;1725342;80;21019;-41
2021/08/15 10:01:44;;;;;;;2.45;2.25;;;;;;;30.76;27.87;100901.45;1750112;80;21532;-41
2021/08/15 10:04:11;;;;;;;2.30;2.20;;;;;;;30.89;29.11;100909.09;1748479;80;21675;-41
2021/08/15 10:06:43;;;;;;;4.35;3.30;;;;;;;30.97;28.96;100902.49;1752511;80;21432;-41
2021/08/15 10:09:10;;;;;;;10.20;3.80;;;;;;;30.81;29.07;100897.31;1748179;80;21136;-41
2021/08/15 10:11:39;;;;;;;2.08;1.95;;;;;;;30.94;29.15;100888.93;1750907;80;21018;-42
2021/08/15 10:14:07;;;;;;;5.85;2.30;;;;;;;30.99;27.77;100893.00;1741369;81;20947;-42
2021/08/15 10:16:57;;;;;;;5.55;2.72;;;;;;;30.93;30.52;100895.27;1705035;82;21003;-42
2021/08/15 10:19:57;;;;;;;54.03;5.70;;;;;;;31.25;28.48;100883.73;1735232;82;21013;-42
2021/08/15 10:22:30;;;;;;;19.02;3.55;;;;;;;31.26;27.28;100881.41;1729253;82;20956;-41
2021/08/15 10:25:00;;;;;;;5.70;2.87;;;;;;;31.11;30.64;100885.94;1733458;82;21682;-42
2021/08/15 10:27:45;;;;;;;8.30;3.05;;;;;;;30.77;32.75;100892.45;1730831;82;21339;-42
2021/08/15 10:30:25;;;;;;;3.92;2.83;;;;;;;30.30;33.54;100882.67;1728698;81;21019;-42
2021/08/15 10:33:01;;;;;;;5.72;3.05;;;;;;;30.11;34.68;100881.28;1733231;82;21576;-42
2021/08/15 10:35:32;;;;;;;15.70;3.77;;;;;;;29.92;35.02;100875.98;1736143;82;21754;-41
2021/08/15 10:38:17;;;;;;;54.15;5.05;;;;;;;29.61;37.94;100871.73;1716500;82;21410;-42
2021/08/15 10:40:49;;;;;;;18.90;3.90;;;;;;;29.63;36.03;100871.56;1734809;82;21504;-42
2021/08/15 10:43:31;;;;;;;33.55;4.85;;;;;;;29.68;35.22;100859.49;1731956;81;20995;-41
2021/08/15 10:46:17;;;;;;;68.90;5.92;;;;;;;29.74;34.96;100866.08;1731449;82;21007;-41
2021/08/15 10:49:04;;;;;;;8.05;3.60;;;;;;;29.61;35.70;100862.88;1735282;82;20952;-41
2021/08/15 10:51:51;;;;;;;19.50;5.83;;;;;;;29.61;35.52;100857.06;1735344;82;21530;-42
2021/08/15 10:54:33;;;;;;;22.73;4.90;;;;;;;29.53;37.00;100850.25;1735448;82;21015;-41
2021/08/15 10:57:04;;;;;;;47.10;5.90;;;;;;;29.65;36.30;100850.93;1698534;83;21015;-41
2021/08/15 10:59:40;;;;;;;35.83;5.30;;;;;;;29.75;36.16;100849.09;1724516;82;20963;-42
2021/08/15 11:02:16;;;;;;;36.98;5.08;;;;;;;29.87;38.10;100844.91;1735398;82;21007;-41
2021/08/15 11:05:02;;;;;;;23.73;3.90;;;;;;;29.94;37.52;100843.36;1739730;82;21494;-42
2021/08/15 11:07:41;;;;;;;68.87;6.08;;;;;;;29.95;35.23;100843.70;1723588;82;21493;-40
2021/08/15 11:10:13;;;;;;;21.55;4.15;;;;;;;29.95;35.78;100842.37;1719351;82;20943;-40
2021/08/15 11:13:16;;;;;;;41.23;4.50;;;;;;;29.88;35.68;100835.91;1736386;82;20959;-41
2021/08/15 11:15:44;;;;;;;81.08;7.62;;;;;;;29.66;37.39;100836.61;1737396;81;20987;-41
2021/08/15 11:18:14;;;;;;;58.68;5.42;;;;;;;29.66;36.89;100837.46;1705249;82;21608;-41
2021/08/15 11:20:49;;;;;;;17.48;3.50;;;;;;;29.50;37.35;100834.55;1731365;82;20984;-42
2021/08/15 11:23:18;;;;;;;49.08;5.17;;;;;;;29.40;36.04;100827.86;1731111;82;21525;-41
2021/08/15 11:25:45;;;;;;;27.02;4.65;;;;;;;29.19;36.30;100826.23;1734063;82;20983;-41
2021/08/15 11:28:13;;;;;;;54.15;5.40;;;;;;;28.98;35.59;100823.70;1707086;82;21050;-41
2021/08/15 11:30:39;;;;;;;30.43;4.20;;;;;;;29.04;38.54;100823.63;1731280;82;21628;-42